« Back
NWS Peachtree City, Ga » Text Product » ATL Terminal Aerodrome Forecast


Printer-friendly Version
Current Version              Previous Versions:   1  2  3  4  5  6  7  8  9  

Terminal Aerodrome Forecast

720
FTUS42 KFFC 192329
TAFATL
TAF
KATL 192329Z 2000/2106 21012G17KT P6SM SCT025 BKN120
      TEMPO 2001/2002 27015G25KT 2SM +TSRA BR BKN012CB
     FM200200 24010G15KT P6SM SCT045
     FM200600 21008KT P6SM SCT015
     FM200800 21008G13KT P6SM BKN008
     FM201400 22010G20KT P6SM BKN015
     FM201700 21012G22KT P6SM BKN035 PROB30 2017/2022 3SM TSRA
      BKN015CB
     FM210000 28008KT P6SM SCT080=

USA.gov is the U.S. government's official web portal to all federal, state and local government web resources and services.